Time;durP1;ratioP1;P1;durP2;ratioP2;P2;SDS_P1;SDS_P2;PMS_P1;PMS_P2;Temp;Humidity;BMP_temperature;BMP_pressure;BME280_temperature;BME280_humidity;BME280_pressure;Samples;Min_cycle;Max_cycle;Signal;HPM_P1;HPM_P2
2023/06/09 00:00:11;;;;;;;360.97;193.97;;;;;;;18.86;76.49;99345.31;331280;29;1584;-81
2023/06/09 00:00:22;;;;;;;360.45;193.73;;;;;;;18.85;76.48;99343.63;331736;29;1297;-81
2023/06/09 00:00:33;;;;;;;360.47;194.37;;;;;;;18.86;76.74;99349.78;330115;29;2207;-81
2023/06/09 00:00:46;;;;;;;360.42;194.02;;;;;;;18.87;76.77;99347.00;325892;30;2273;-83
2023/06/09 00:00:56;;;;;;;358.67;193.98;;;;;;;18.89;76.65;99345.09;326948;30;2274;-82
2023/06/09 00:01:09;;;;;;;358.45;192.82;;;;;;;18.89;76.42;99349.53;328124;30;1283;-82
2023/06/09 00:01:20;;;;;;;365.58;193.80;;;;;;;18.90;76.67;99346.78;323189;30;1334;-82
2023/06/09 00:01:35;;;;;;;366.17;193.40;;;;;;;18.90;76.54;99343.28;325359;30;2046;-82
2023/06/09 00:01:45;;;;;;;361.65;193.25;;;;;;;18.94;76.49;99342.91;322238;30;2329;-82
2023/06/09 00:01:58;;;;;;;361.30;191.80;;;;;;;18.97;76.52;99346.28;317477;30;1962;-82
2023/06/09 00:02:09;;;;;;;358.98;191.57;;;;;;;19.00;76.03;99348.69;319155;30;3567;-82
2023/06/09 00:02:21;;;;;;;362.85;195.63;;;;;;;19.01;76.07;99353.03;317126;31;3282;-82
2023/06/09 00:02:33;;;;;;;363.88;193.35;;;;;;;19.01;75.96;99345.91;316268;31;3172;-82
2023/06/09 00:02:52;;;;;;;369.75;194.95;;;;;;;19.04;76.11;99347.50;313877;31;2571;-82
2023/06/09 00:03:05;;;;;;;367.70;199.38;;;;;;;18.97;76.13;99347.13;311033;31;2951;-82
2023/06/09 00:03:16;;;;;;;363.27;200.80;;;;;;;19.00;76.33;99352.19;312620;31;3088;-82
2023/06/09 00:03:27;;;;;;;361.27;199.15;;;;;;;19.04;75.95;99358.09;312578;31;2513;-82
2023/06/09 00:03:39;;;;;;;360.30;197.30;;;;;;;19.06;75.94;99350.88;316365;31;854;-82
2023/06/09 00:03:50;;;;;;;358.55;193.88;;;;;;;19.07;76.01;99349.88;311451;31;2714;-82
2023/06/09 00:04:06;;;;;;;359.55;194.52;;;;;;;19.10;75.97;99347.81;314052;31;3080;-82
2023/06/09 00:04:17;;;;;;;360.45;197.63;;;;;;;19.13;75.65;99347.56;314647;31;2922;-82
2023/06/09 00:04:29;;;;;;;359.33;197.10;;;;;;;19.15;75.56;99358.06;310374;31;2428;-82
2023/06/09 00:04:41;;;;;;;360.35;198.38;;;;;;;19.14;75.63;99348.41;307331;31;3000;-82
2023/06/09 00:04:51;;;;;;;356.58;194.45;;;;;;;19.19;75.58;99346.22;309602;31;1325;-82
2023/06/09 00:05:01;;;;;;;355.77;194.03;;;;;;;19.20;75.34;99354.06;311840;31;3279;-82
2023/06/09 00:05:12;;;;;;;357.52;196.40;;;;;;;19.24;75.33;99354.66;311344;31;3797;-82
2023/06/09 00:05:23;;;;;;;362.17;203.13;;;;;;;19.25;75.28;99356.34;312992;31;822;-82
2023/06/09 00:05:34;;;;;;;362.95;204.45;;;;;;;19.27;75.06;99349.13;309196;31;3057;-82
2023/06/09 00:05:46;;;;;;;364.33;204.13;;;;;;;19.29;75.07;99357.78;304337;32;3344;-82
2023/06/09 00:05:59;;;;;;;359.45;198.43;;;;;;;19.32;75.13;99359.34;300987;32;3756;-82
2023/06/09 00:06:10;;;;;;;357.02;197.00;;;;;;;19.31;74.92;99355.03;300981;32;1579;-82
2023/06/09 00:06:22;;;;;;;358.35;200.35;;;;;;;19.28;74.82;99345.50;299504;32;1251;-82
2023/06/09 00:06:35;;;;;;;357.10;199.88;;;;;;;19.33;74.42;99351.28;296007;33;2273;-82
2023/06/09 00:06:46;;;;;;;359.42;201.05;;;;;;;19.33;74.93;99356.59;296269;33;3252;-82
2023/06/09 00:06:57;;;;;;;363.90;203.85;;;;;;;19.34;74.28;99355.63;293823;33;4297;-82
2023/06/09 00:07:07;;;;;;;367.67;205.03;;;;;;;19.36;74.61;99359.00;291061;34;1235;-82
2023/06/09 00:07:18;;;;;;;366.88;206.75;;;;;;;19.36;74.68;99353.69;293290;33;5050;-82
2023/06/09 00:07:29;;;;;;;363.10;207.47;;;;;;;19.37;74.83;99360.69;291763;33;5704;-82
2023/06/09 00:07:40;;;;;;;362.40;207.88;;;;;;;19.35;74.73;99354.66;291082;33;5018;-82
2023/06/09 00:07:53;;;;;;;358.92;202.88;;;;;;;19.35;74.57;99357.31;291142;34;1322;-82
2023/06/09 00:08:03;;;;;;;359.13;198.93;;;;;;;19.37;74.64;99360.69;293906;33;4750;-83
2023/06/09 00:08:14;;;;;;;360.27;202.17;;;;;;;19.35;74.50;99356.47;293703;33;6466;-83
2023/06/09 00:08:25;;;;;;;361.48;206.18;;;;;;;19.33;74.71;99353.94;291128;33;6985;-83
2023/06/09 00:08:36;;;;;;;363.23;209.23;;;;;;;19.30;74.67;99358.63;291206;33;1392;-83
2023/06/09 00:08:46;;;;;;;367.00;210.60;;;;;;;19.27;74.91;99357.91;287916;34;3648;-83
2023/06/09 00:08:59;;;;;;;367.60;210.33;;;;;;;19.25;74.91;99351.06;285449;34;4490;-83
2023/06/09 00:09:10;;;;;;;368.75;210.93;;;;;;;19.26;74.83;99355.38;281729;34;5095;-83
2023/06/09 00:09:21;;;;;;;369.20;209.75;;;;;;;19.26;74.84;99353.56;279255;35;1323;-83
2023/06/09 00:09:31;;;;;;;368.45;204.05;;;;;;;19.28;74.71;99359.59;274915;35;8058;-83
2023/06/09 00:09:45;;;;;;;366.27;203.23;;;;;;;19.28;75.02;99356.94;273479;35;7991;-82
2023/06/09 00:09:55;;;;;;;363.30;206.30;;;;;;;19.29;74.68;99352.50;274587;35;7310;-82
2023/06/09 00:10:06;;;;;;;368.93;209.00;;;;;;;19.29;74.75;99352.50;272293;36;1235;-82
2023/06/09 00:10:17;;;;;;;369.13;209.70;;;;;;;19.34;74.34;99354.78;274673;35;6328;-80
2023/06/09 00:12:02;;;;;;;346.15;191.60;;;;;;;19.41;74.42;99359.47;2456476;27;20364;-80
2023/06/09 00:12:12;;;;;;;357.52;199.00;;;;;;;19.41;74.23;99356.81;344795;28;1351;-80
2023/06/09 00:12:23;;;;;;;362.27;204.32;;;;;;;19.42;74.39;99355.00;342989;28;1324;-80
2023/06/09 00:12:33;;;;;;;362.97;204.93;;;;;;;19.41;74.70;99353.31;339507;29;1316;-80
2023/06/09 00:12:43;;;;;;;365.53;205.10;;;;;;;19.42;74.95;99358.50;344232;28;1153;-80
2023/06/09 00:12:54;;;;;;;364.10;202.13;;;;;;;19.43;74.69;99354.88;342084;28;1320;-80
2023/06/09 00:13:05;;;;;;;364.65;202.10;;;;;;;19.44;74.60;99355.72;340791;28;1438;-80
2023/06/09 00:13:15;;;;;;;368.27;201.87;;;;;;;19.44;74.35;99356.56;341714;28;1226;-80
2023/06/09 00:13:26;;;;;;;366.02;201.27;;;;;;;19.43;74.55;99354.88;342087;28;891;-82
2023/06/09 00:13:36;;;;;;;365.35;200.52;;;;;;;19.41;74.41;99353.31;340740;28;1267;-82
2023/06/09 00:13:47;;;;;;;363.20;202.60;;;;;;;19.43;74.28;99360.19;340671;29;1254;-82
2023/06/09 00:13:57;;;;;;;365.73;206.63;;;;;;;19.43;74.65;99365.50;343751;28;1218;-81
2023/06/09 00:14:08;;;;;;;362.40;204.38;;;;;;;19.44;74.15;99359.22;344844;28;1310;-81
2023/06/09 00:14:18;;;;;;;360.63;205.27;;;;;;;19.43;74.21;99360.19;345079;28;1459;-80
2023/06/09 00:14:28;;;;;;;360.02;203.85;;;;;;;19.44;74.44;99359.22;340994;29;1252;-80
2023/06/09 00:14:39;;;;;;;361.03;206.30;;;;;;;19.45;74.43;99363.56;342307;28;1001;-80
2023/06/09 00:14:49;;;;;;;359.80;202.93;;;;;;;19.46;74.13;99356.44;342695;28;1248;-80
2023/06/09 00:15:00;;;;;;;361.10;207.33;;;;;;;19.44;74.35;99361.88;343422;28;1191;-80
2023/06/09 00:15:11;;;;;;;358.83;204.43;;;;;;;19.44;74.14;99361.03;343596;28;1319;-80
2023/06/09 00:15:21;;;;;;;359.83;204.93;;;;;;;19.46;74.34;99362.59;344920;28;1358;-80
2023/06/09 00:15:32;;;;;;;363.43;207.00;;;;;;;19.47;74.08;99366.94;344032;28;1311;-80
2023/06/09 00:15:42;;;;;;;365.47;210.47;;;;;;;19.48;74.08;99368.63;343353;28;1304;-82
2023/06/09 00:15:52;;;;;;;363.83;208.70;;;;;;;19.49;73.95;99365.00;341969;28;1355;-81
2023/06/09 00:16:03;;;;;;;359.63;207.20;;;;;;;19.47;73.73;99361.63;342168;28;1323;-81
2023/06/09 00:16:15;;;;;;;357.95;206.07;;;;;;;19.49;74.35;99358.84;343242;28;1332;-81
2023/06/09 00:16:26;;;;;;;357.77;205.63;;;;;;;19.51;74.18;99365.72;343251;28;1455;-82
2023/06/09 00:16:37;;;;;;;357.20;205.13;;;;;;;19.51;73.83;99362.22;340601;28;1415;-82
2023/06/09 00:16:47;;;;;;;353.63;206.20;;;;;;;19.49;74.34;99359.69;343075;28;1976;-82
2023/06/09 00:16:59;;;;;;;353.70;205.70;;;;;;;19.47;74.05;99361.63;340500;29;2668;-82
2023/06/09 00:17:10;;;;;;;357.36;207.68;;;;;;;19.49;74.08;99362.34;342047;28;850;-82
2023/06/09 00:17:24;;;;;;;366.17;208.00;;;;;;;19.49;73.83;99356.19;341957;28;1298;-82
2023/06/09 00:17:34;;;;;;;364.73;208.35;;;;;;;19.50;74.20;99365.81;339502;29;1421;-82
2023/06/09 00:17:45;;;;;;;365.20;210.40;;;;;;;19.49;74.29;99359.69;342937;28;1225;-82
2023/06/09 00:17:56;;;;;;;358.38;204.60;;;;;;;19.51;74.04;99362.22;343243;28;1363;-82
2023/06/09 00:18:07;;;;;;;361.20;207.73;;;;;;;19.51;73.90;99365.72;338255;29;1288;-81
2023/06/09 00:18:17;;;;;;;358.35;205.63;;;;;;;19.50;74.26;99366.66;338321;29;1282;-81
2023/06/09 00:18:28;;;;;;;362.60;210.20;;;;;;;19.51;73.86;99365.72;337132;29;1197;-82
2023/06/09 00:18:40;;;;;;;362.58;209.50;;;;;;;19.52;73.92;99366.56;335639;29;1309;-82
2023/06/09 00:18:51;;;;;;;363.55;212.40;;;;;;;19.51;74.15;99368.38;337943;29;1391;-82
2023/06/09 00:19:03;;;;;;;359.63;210.63;;;;;;;19.51;74.21;99363.06;338075;29;1497;-82
2023/06/09 00:19:14;;;;;;;359.15;207.88;;;;;;;19.51;74.11;99370.19;335447;29;1326;-82
2023/06/09 00:19:24;;;;;;;362.77;209.63;;;;;;;19.51;74.20;99360.41;338595;29;1282;-82
2023/06/09 00:19:36;;;;;;;360.92;207.20;;;;;;;19.52;74.00;99359.44;338214;29;1195;-82
2023/06/09 00:19:47;;;;;;;360.80;206.95;;;;;;;19.53;74.01;99360.28;337857;29;1425;-80
2023/06/09 00:20:03;;;;;;;360.70;207.77;;;;;;;19.54;74.05;99365.47;336307;29;1475;-80
2023/06/09 00:20:14;;;;;;;360.80;209.95;;;;;;;19.52;74.05;99364.75;339059;29;1761;-81
2023/06/09 00:20:25;;;;;;;358.20;205.80;;;;;;;19.55;73.80;99363.66;339156;29;1430;-81
2023/06/09 00:20:37;;;;;;;356.25;202.15;;;;;;;19.51;74.00;99363.06;340920;29;1331;-81
2023/06/09 00:20:50;;;;;;;355.67;203.73;;;;;;;19.51;74.02;99362.22;335795;29;1283;-81
2023/06/09 00:21:01;;;;;;;356.27;211.02;;;;;;;19.49;74.10;99361.50;334410;29;1561;-81
2023/06/09 00:21:15;;;;;;;356.70;210.60;;;;;;;19.47;74.24;99364.28;332597;29;1327;-81
2023/06/09 00:21:26;;;;;;;358.58;212.18;;;;;;;19.46;74.25;99357.28;334380;29;1515;-81
2023/06/09 00:21:37;;;;;;;361.23;210.68;;;;;;;19.46;74.09;99365.25;335393;29;1528;-82
2023/06/09 00:21:51;;;;;;;361.98;210.60;;;;;;;19.46;74.21;99359.94;331616;29;1471;-82
2023/06/09 00:22:01;;;;;;;363.55;209.70;;;;;;;19.47;74.14;99366.09;330983;29;1532;-82
2023/06/09 00:22:13;;;;;;;362.67;207.23;;;;;;;19.48;74.01;99360.66;333203;29;1962;-81
2023/06/09 00:22:26;;;;;;;359.05;203.30;;;;;;;19.49;74.07;99366.81;329052;29;2168;-81
2023/06/09 00:22:43;;;;;;;360.55;207.05;;;;;;;19.47;74.19;99360.78;330606;29;1964;-81
2023/06/09 00:22:55;;;;;;;358.10;203.18;;;;;;;19.44;74.19;99356.56;328840;29;2122;-81
2023/06/09 00:23:05;;;;;;;357.27;201.98;;;;;;;19.46;74.22;99365.25;323073;30;1429;-81
2023/06/09 00:23:16;;;;;;;357.40;203.63;;;;;;;19.45;74.22;99354.75;323110;30;1722;-81
2023/06/09 00:23:28;;;;;;;361.50;208.43;;;;;;;19.44;74.46;99363.69;322892;30;1235;-83
2023/06/09 00:23:44;;;;;;;362.67;210.38;;;;;;;19.44;74.45;99359.22;325348;30;1315;-82
2023/06/09 00:23:55;;;;;;;360.33;210.55;;;;;;;19.44;74.35;99356.56;320668;30;1649;-82
2023/06/09 00:24:06;;;;;;;362.85;210.80;;;;;;;19.45;74.32;99360.06;319208;30;2195;-82
2023/06/09 00:24:19;;;;;;;360.95;208.98;;;;;;;19.44;74.01;99356.56;311787;31;1250;-82
2023/06/09 00:24:30;;;;;;;358.95;208.35;;;;;;;19.45;74.48;99358.25;313133;31;1645;-81
2023/06/09 00:24:42;;;;;;;360.67;212.63;;;;;;;19.47;74.29;99360.78;311805;31;2554;-81
2023/06/09 00:24:53;;;;;;;361.23;211.80;;;;;;;19.46;74.28;99362.59;311575;31;2768;-81
2023/06/09 00:25:03;;;;;;;362.40;210.47;;;;;;;19.48;74.15;99358.00;310667;31;1258;-81
2023/06/09 00:25:15;;;;;;;359.35;207.50;;;;;;;19.47;74.34;99360.78;307914;31;2714;-81
2023/06/09 00:25:26;;;;;;;360.58;211.15;;;;;;;19.49;74.30;99359.69;307464;31;1925;-81
2023/06/09 00:25:36;;;;;;;366.00;212.83;;;;;;;19.48;74.16;99358.00;310517;31;1208;-81
2023/06/09 00:25:46;;;;;;;366.07;212.93;;;;;;;19.50;74.25;99356.03;311734;31;1395;-81
2023/06/09 00:25:57;;;;;;;366.60;217.20;;;;;;;19.50;74.13;99364.00;309298;31;2032;-81
2023/06/09 00:26:07;;;;;;;360.07;211.73;;;;;;;19.52;74.14;99359.44;301906;32;2445;-81
2023/06/09 00:26:18;;;;;;;363.73;213.80;;;;;;;19.50;73.97;99356.03;303845;32;1330;-81
2023/06/09 00:26:28;;;;;;;366.93;213.77;;;;;;;19.52;74.47;99353.28;304538;32;2980;-82
2023/06/09 00:26:38;;;;;;;368.50;215.23;;;;;;;19.52;74.22;99359.44;305111;31;2874;-82
2023/06/09 00:26:50;;;;;;;368.53;216.30;;;;;;;19.52;74.17;99359.44;305442;32;1767;-82
2023/06/09 00:27:00;;;;;;;366.20;212.45;;;;;;;19.54;73.96;99362.81;296133;32;3218;-82
2023/06/09 00:27:10;;;;;;;366.35;212.98;;;;;;;19.54;73.99;99360.16;294322;33;3531;-82
2023/06/09 00:27:21;;;;;;;369.73;214.30;;;;;;;19.54;74.04;99362.81;294078;33;1333;-81
2023/06/09 00:27:31;;;;;;;367.27;213.57;;;;;;;19.54;74.19;99357.50;296253;33;3310;-81
2023/06/09 00:27:43;;;;;;;364.77;212.95;;;;;;;19.54;74.38;99359.31;293405;33;2458;-81
2023/06/09 00:27:54;;;;;;;363.48;211.48;;;;;;;19.52;74.32;99354.13;292550;33;2125;-81
2023/06/09 00:28:04;;;;;;;363.70;211.15;;;;;;;19.52;74.11;99362.09;293243;33;1269;-81
2023/06/09 00:28:15;;;;;;;364.83;213.47;;;;;;;19.54;74.12;99357.50;287539;33;2749;-81
2023/06/09 00:28:25;;;;;;;364.43;216.97;;;;;;;19.53;73.97;99355.81;288459;33;3088;-81
2023/06/09 00:28:35;;;;;;;365.90;218.15;;;;;;;19.53;74.09;99355.81;287503;34;4393;-81
2023/06/09 00:28:46;;;;;;;367.20;221.57;;;;;;;19.53;74.28;99360.28;282860;34;3172;-82
2023/06/09 00:28:56;;;;;;;366.55;221.38;;;;;;;19.52;74.32;99362.09;283005;34;4112;-81
2023/06/09 00:29:07;;;;;;;365.77;222.57;;;;;;;19.50;74.34;99356.03;282563;34;4112;-81
2023/06/09 00:29:18;;;;;;;364.08;217.98;;;;;;;19.53;74.29;99353.16;281584;34;1332;-81
2023/06/09 00:29:28;;;;;;;362.80;214.98;;;;;;;19.52;74.18;99364.75;280954;34;4143;-81
2023/06/09 00:29:39;;;;;;;362.93;213.70;;;;;;;19.53;74.21;99354.97;281354;34;4777;-82
2023/06/09 00:29:49;;;;;;;362.88;216.95;;;;;;;19.51;74.06;99355.09;282848;34;1418;-82
2023/06/09 00:30:00;;;;;;;365.70;217.87;;;;;;;19.51;73.92;99360.41;283670;34;3667;-82
2023/06/09 00:30:11;;;;;;;366.45;220.30;;;;;;;19.52;74.00;99354.13;282773;34;3413;-82
2023/06/09 00:30:22;;;;;;;369.55;226.55;;;;;;;19.52;74.26;99362.09;279465;35;4113;-82
2023/06/09 00:30:33;;;;;;;368.55;226.23;;;;;;;19.51;74.19;99356.91;276559;35;1364;-82
2023/06/09 00:30:43;;;;;;;368.50;222.60;;;;;;;19.49;74.34;99354.38;272355;35;4751;-82
2023/06/09 00:30:53;;;;;;;368.23;219.63;;;;;;;19.49;73.98;99354.38;270230;36;6548;-82
2023/06/09 00:31:04;;;;;;;367.48;217.35;;;;;;;19.48;74.37;99355.34;268658;36;1359;-81
2023/06/09 00:31:14;;;;;;;367.60;216.80;;;;;;;19.46;74.81;99349.31;267633;36;7377;-81
2023/06/09 00:31:25;;;;;;;364.52;214.75;;;;;;;19.47;74.16;99352.81;268052;36;5770;-81
2023/06/09 00:31:35;;;;;;;365.00;215.27;;;;;;;19.45;74.58;99358.25;267692;36;5020;-81
2023/06/09 00:31:46;;;;;;;362.65;213.88;;;;;;;19.45;74.47;99357.41;266940;36;5995;-81
2023/06/09 00:33:29;;;;;;;350.88;195.39;;;;;;;19.45;74.43;99360.91;2462831;27;20278;-80
2023/06/09 00:33:40;;;;;;;357.67;207.60;;;;;;;19.43;74.47;99354.88;346116;28;1205;-81
2023/06/09 00:33:50;;;;;;;360.98;211.85;;;;;;;19.42;74.58;99352.34;343601;28;1354;-81
2023/06/09 00:34:01;;;;;;;364.50;212.03;;;;;;;19.44;74.62;99361.03;343303;28;1273;-82
2023/06/09 00:34:11;;;;;;;365.03;210.47;;;;;;;19.40;74.48;99347.16;342218;28;1226;-80
2023/06/09 00:34:21;;;;;;;365.90;211.32;;;;;;;19.42;74.22;99363.81;342146;28;1202;-82
2023/06/09 00:34:32;;;;;;;366.23;209.70;;;;;;;19.41;74.42;99351.50;342465;28;1011;-82
2023/06/09 00:34:43;;;;;;;367.52;211.98;;;;;;;19.40;74.51;99349.81;340790;28;1462;-82
2023/06/09 00:34:53;;;;;;;364.27;208.07;;;;;;;19.41;74.82;99354.16;342170;28;1261;-82
2023/06/09 00:35:04;;;;;;;366.80;211.33;;;;;;;19.41;74.53;99351.50;343308;28;1447;-82
2023/06/09 00:35:14;;;;;;;363.98;205.43;;;;;;;19.42;75.06;99355.00;341918;28;1199;-82
2023/06/09 00:35:25;;;;;;;367.43;210.27;;;;;;;19.40;74.92;99355.13;344721;28;1290;-82
2023/06/09 00:35:35;;;;;;;367.40;208.65;;;;;;;19.41;74.53;99351.50;341959;28;1230;-82
2023/06/09 00:35:46;;;;;;;369.60;213.23;;;;;;;19.43;74.72;99354.03;342654;28;1111;-81
2023/06/09 00:35:56;;;;;;;365.67;208.05;;;;;;;19.40;74.67;99349.81;345765;28;1327;-81
2023/06/09 00:36:07;;;;;;;365.37;207.30;;;;;;;19.42;74.73;99347.03;343402;28;1343;-81
2023/06/09 00:36:18;;;;;;;362.25;203.93;;;;;;;19.40;74.39;99349.81;341951;28;1396;-81
2023/06/09 00:36:28;;;;;;;362.23;205.53;;;;;;;19.41;74.54;99350.66;341786;28;1241;-81
2023/06/09 00:36:39;;;;;;;361.40;205.57;;;;;;;19.42;74.83;99345.22;340652;29;1243;-81
2023/06/09 00:36:50;;;;;;;365.27;207.80;;;;;;;19.41;74.80;99350.66;339422;29;1439;-81
2023/06/09 00:37:00;;;;;;;368.60;205.37;;;;;;;19.41;74.78;99356.81;341123;28;1495;-81
2023/06/09 00:37:10;;;;;;;370.20;205.10;;;;;;;19.38;74.44;99351.75;339570;29;1291;-81
2023/06/09 00:37:21;;;;;;;370.00;207.00;;;;;;;19.41;74.39;99355.97;341976;28;1014;-81
2023/06/09 00:37:31;;;;;;;367.20;209.57;;;;;;;19.40;75.00;99349.81;342100;28;1199;-81
2023/06/09 00:37:42;;;;;;;368.42;213.90;;;;;;;19.41;75.00;99354.16;340807;29;1242;-81
2023/06/09 00:37:52;;;;;;;367.70;213.40;;;;;;;19.40;74.55;99355.13;341128;28;1143;-81
2023/06/09 00:38:03;;;;;;;364.67;213.32;;;;;;;19.40;74.70;99349.81;342312;28;1256;-81
2023/06/09 00:38:13;;;;;;;360.40;210.73;;;;;;;19.41;74.62;99356.81;343536;28;1260;-81
2023/06/09 00:38:24;;;;;;;364.38;211.43;;;;;;;19.40;74.64;99355.13;342863;28;1312;-81
2023/06/09 00:38:35;;;;;;;366.70;211.40;;;;;;;19.41;74.92;99356.81;342653;28;1314;-81
2023/06/09 00:38:45;;;;;;;369.52;210.90;;;;;;;19.41;74.68;99348.84;341075;28;1303;-81
2023/06/09 00:38:55;;;;;;;363.25;209.02;;;;;;;19.42;74.61;99352.34;342149;28;1359;-81
2023/06/09 00:39:06;;;;;;;361.90;208.63;;;;;;;19.43;74.75;99348.72;342078;28;1231;-81
2023/06/09 00:39:16;;;;;;;362.40;210.67;;;;;;;19.41;74.82;99356.81;343336;28;1367;-81
2023/06/09 00:39:27;;;;;;;365.45;209.27;;;;;;;19.43;74.85;99351.38;344596;28;1246;-81
2023/06/09 00:39:37;;;;;;;366.97;209.17;;;;;;;19.41;74.88;99351.50;343414;28;1246;-81
2023/06/09 00:39:47;;;;;;;370.02;209.98;;;;;;;19.42;75.05;99353.19;340661;29;1225;-81
2023/06/09 00:39:58;;;;;;;370.13;212.30;;;;;;;19.39;74.58;99348.13;341650;28;1223;-82
2023/06/09 00:40:08;;;;;;;370.60;210.83;;;;;;;19.43;74.54;99351.38;340155;28;1206;-81
2023/06/09 00:40:21;;;;;;;365.02;209.07;;;;;;;19.43;74.65;99354.88;337733;29;1361;-81
2023/06/09 00:40:32;;;;;;;361.20;208.25;;;;;;;19.42;74.89;99353.19;340838;29;927;-81
2023/06/09 00:40:42;;;;;;;361.42;209.77;;;;;;;19.41;74.69;99348.84;341965;28;1137;-81
2023/06/09 00:40:53;;;;;;;363.40;210.57;;;;;;;19.43;75.00;99349.56;340652;29;1169;-81
2023/06/09 00:41:03;;;;;;;365.02;212.18;;;;;;;19.42;74.70;99358.50;339620;29;1236;-81
2023/06/09 00:41:14;;;;;;;366.53;211.90;;;;;;;19.44;75.05;99355.72;335887;29;870;-81
2023/06/09 00:41:25;;;;;;;364.20;204.38;;;;;;;19.42;74.62;99353.19;340293;28;885;-81
2023/06/09 00:41:36;;;;;;;368.25;205.70;;;;;;;19.41;74.71;99348.84;336770;29;1475;-81
2023/06/09 00:41:47;;;;;;;371.70;206.13;;;;;;;19.42;74.70;99355.84;332437;29;2894;-81
2023/06/09 00:41:57;;;;;;;371.23;210.73;;;;;;;19.41;74.64;99350.66;336247;29;1708;-81
2023/06/09 00:42:08;;;;;;;374.67;212.13;;;;;;;19.41;74.93;99356.81;335378;29;1273;-81
2023/06/09 00:42:18;;;;;;;371.23;212.40;;;;;;;19.42;75.02;99347.03;334895;29;1349;-81
2023/06/09 00:42:30;;;;;;;373.60;215.20;;;;;;;19.40;74.75;99349.81;332721;29;1224;-81
2023/06/09 00:42:40;;;;;;;367.98;211.85;;;;;;;19.41;74.81;99346.19;333189;29;1553;-81
2023/06/09 00:42:51;;;;;;;368.30;212.33;;;;;;;19.41;75.02;99346.19;332478;29;1574;-81
2023/06/09 00:43:02;;;;;;;365.90;207.15;;;;;;;19.42;74.68;99347.03;330706;29;1340;-81
2023/06/09 00:43:13;;;;;;;369.77;210.75;;;;;;;19.42;75.23;99352.34;332819;29;1451;-81
2023/06/09 00:43:23;;;;;;;368.67;212.52;;;;;;;19.41;75.01;99355.97;331724;29;1080;-81
2023/06/09 00:43:33;;;;;;;371.17;212.30;;;;;;;19.40;74.75;99351.63;331656;29;1585;-81
2023/06/09 00:43:46;;;;;;;366.55;206.80;;;;;;;19.41;74.74;99351.50;328421;30;1221;-81
2023/06/09 00:43:57;;;;;;;362.55;200.13;;;;;;;19.41;75.05;99351.50;331087;29;2065;-81
2023/06/09 00:44:08;;;;;;;366.00;203.75;;;;;;;19.40;75.07;99348.97;326988;30;1889;-81
2023/06/09 00:44:18;;;;;;;369.57;206.93;;;;;;;19.39;74.85;99348.13;330211;29;1681;-81
2023/06/09 00:44:29;;;;;;;370.23;211.30;;;;;;;19.41;74.87;99348.00;329295;30;1291;-81
2023/06/09 00:44:39;;;;;;;368.50;207.70;;;;;;;19.40;75.05;99349.81;324632;30;1308;-81
2023/06/09 00:44:50;;;;;;;368.33;209.43;;;;;;;19.40;75.25;99352.47;324316;30;2193;-82
2023/06/09 00:45:00;;;;;;;365.20;208.17;;;;;;;19.39;75.09;99349.94;322456;30;1139;-82
2023/06/09 00:45:13;;;;;;;362.38;205.30;;;;;;;19.39;74.86;99348.13;320752;30;1597;-81
2023/06/09 00:45:23;;;;;;;362.42;204.75;;;;;;;19.40;75.02;99348.97;320208;30;1336;-81
2023/06/09 00:45:35;;;;;;;361.93;206.67;;;;;;;19.40;74.85;99349.81;322974;30;1278;-81
2023/06/09 00:45:46;;;;;;;361.13;205.45;;;;;;;19.37;75.14;99347.41;321958;30;1037;-81
2023/06/09 00:45:56;;;;;;;361.83;200.40;;;;;;;19.37;75.16;99344.75;320103;30;2227;-81
2023/06/09 00:46:07;;;;;;;367.13;203.68;;;;;;;19.41;75.14;99346.19;321234;30;2457;-81
2023/06/09 00:46:17;;;;;;;371.93;204.37;;;;;;;19.39;75.17;99345.47;316107;31;1238;-81
2023/06/09 00:46:28;;;;;;;373.08;209.30;;;;;;;19.40;75.03;99344.50;318251;30;2749;-81
2023/06/09 00:46:39;;;;;;;370.77;206.17;;;;;;;19.40;74.85;99349.81;317249;30;2122;-81
2023/06/09 00:46:49;;;;;;;369.08;205.38;;;;;;;19.39;75.32;99348.13;315256;31;2154;-81
2023/06/09 00:47:00;;;;;;;371.10;207.10;;;;;;;19.38;74.76;99346.44;313986;31;1334;-81
2023/06/09 00:47:10;;;;;;;373.05;211.18;;;;;;;19.39;75.25;99347.28;312032;31;2523;-82
2023/06/09 00:47:21;;;;;;;374.93;215.23;;;;;;;19.37;75.39;99339.44;313137;31;1945;-82
2023/06/09 00:47:31;;;;;;;370.38;213.27;;;;;;;19.40;75.40;99346.31;313187;31;1367;-82
2023/06/09 00:47:41;;;;;;;365.70;211.17;;;;;;;19.39;75.34;99342.81;314817;31;1168;-82
2023/06/09 00:47:53;;;;;;;360.73;207.00;;;;;;;19.40;75.32;99351.63;309457;31;1822;-81
2023/06/09 00:48:04;;;;;;;357.40;204.07;;;;;;;19.40;75.50;99348.97;305529;31;2339;-81
2023/06/09 00:48:15;;;;;;;357.20;206.20;;;;;;;19.42;75.31;99352.34;310774;31;1082;-81
2023/06/09 00:48:25;;;;;;;358.13;208.65;;;;;;;19.41;74.95;99346.19;308440;31;2994;-82
2023/06/09 00:48:36;;;;;;;361.57;208.97;;;;;;;19.41;75.25;99340.88;307469;31;2910;-81
2023/06/09 00:48:47;;;;;;;362.95;206.07;;;;;;;19.42;75.29;99347.88;308496;32;1346;-80
2023/06/09 00:48:57;;;;;;;367.30;206.63;;;;;;;19.41;75.17;99348.00;310662;31;2337;-80
2023/06/09 00:49:09;;;;;;;367.53;208.40;;;;;;;19.42;75.18;99347.88;311782;31;2573;-80
2023/06/09 00:49:19;;;;;;;366.35;206.77;;;;;;;19.42;75.12;99342.56;308923;31;2712;-80
2023/06/09 00:49:30;;;;;;;363.27;206.38;;;;;;;19.42;75.51;99345.22;304199;32;1527;-81
2023/06/09 00:49:40;;;;;;;366.97;206.33;;;;;;;19.42;75.12;99344.38;306913;31;2305;-81
2023/06/09 00:49:51;;;;;;;366.75;208.55;;;;;;;19.43;75.26;99349.56;306500;32;2216;-81
2023/06/09 00:50:01;;;;;;;368.73;211.10;;;;;;;19.42;75.22;99347.03;303127;32;1446;-81
2023/06/09 00:50:13;;;;;;;367.02;212.70;;;;;;;19.40;75.39;99339.19;304566;32;2601;-81
2023/06/09 00:50:23;;;;;;;369.83;211.05;;;;;;;19.41;74.94;99343.53;304156;32;2875;-81
2023/06/09 00:50:34;;;;;;;371.52;210.18;;;;;;;19.40;74.84;99341.84;300319;32;3655;-81
2023/06/09 00:50:44;;;;;;;374.43;211.57;;;;;;;19.42;74.91;99342.56;299165;32;1242;-81
2023/06/09 00:50:55;;;;;;;376.17;213.95;;;;;;;19.41;74.85;99340.88;298321;32;4065;-80
2023/06/09 00:51:06;;;;;;;374.75;212.90;;;;;;;19.41;75.32;99345.34;299717;32;3617;-80
2023/06/09 00:51:16;;;;;;;373.87;211.90;;;;;;;19.41;74.94;99346.19;299391;32;3618;-81
2023/06/09 00:51:27;;;;;;;373.23;211.18;;;;;;;19.41;74.95;99342.69;295084;33;3542;-81
2023/06/09 00:51:37;;;;;;;374.03;211.20;;;;;;;19.42;75.05;99347.88;296717;32;3499;-81
2023/06/09 00:51:47;;;;;;;372.05;210.95;;;;;;;19.40;75.06;99341.84;296860;33;1404;-81
2023/06/09 00:51:58;;;;;;;370.83;209.30;;;;;;;19.40;74.88;99341.84;294636;33;3221;-82
2023/06/09 00:52:08;;;;;;;371.20;210.93;;;;;;;19.41;74.92;99340.03;292999;33;3466;-82
2023/06/09 00:52:19;;;;;;;370.02;211.65;;;;;;;19.41;74.67;99340.88;288213;33;3792;-82
2023/06/09 00:52:30;;;;;;;367.70;210.43;;;;;;;19.43;74.74;99346.06;289269;34;1505;-81
2023/06/09 00:52:40;;;;;;;365.17;204.60;;;;;;;19.39;74.98;99337.50;288279;33;4929;-82
2023/06/09 00:52:51;;;;;;;363.83;200.68;;;;;;;19.41;75.09;99340.03;282605;34;4860;-82
2023/06/09 00:53:02;;;;;;;365.93;204.77;;;;;;;19.41;75.18;99345.34;281359;35;1242;-82
2023/06/09 00:53:12;;;;;;;367.37;212.17;;;;;;;19.39;74.97;99348.13;283578;34;5510;-81
2023/06/09 00:53:26;;;;;;;368.60;214.88;;;;;;;19.39;75.02;99345.47;280785;34;5952;-81
2023/06/09 00:53:37;;;;;;;364.00;210.88;;;;;;;19.38;75.30;99341.13;279132;35;4454;-81
2023/06/09 00:53:47;;;;;;;363.25;209.23;;;;;;;19.39;75.16;99337.50;279797;35;1267;-81